METAR Data
IDs: Format: Raw Decoded Include TAF

Data at: 0525 UTC 24 Sep 2018

KGAI 240456Z AUTO 04003KT 6SM -RA BR OVC004 16/15 A3027 RMK AO2 SLP280 P0002 T01560150 401610139
KGAI 240356Z AUTO 00000KT 7SM -RA OVC004 16/16 A3028 RMK AO2 SLP281 P0002 T01560156
KGAI 240256Z AUTO VRB03KT 10SM -RA OVC006 16/16 A3027 RMK AO2 SLP277 P0002 60009 T01560156 53009
KGAI 240156Z AUTO VRB03KT 10SM -RA OVC006 16/16 A3025 RMK AO2 CIG 004V009 SLP273 P0003 T01560156
KGAI 240056Z AUTO VRB03KT 10SM -RA BKN006 BKN016 OVC050 16/16 A3024 RMK AO2 CIG 003V007 SLP270 P0004 T01560156
KGAI 232356Z AUTO 00000KT 7SM RA OVC006 16/15 A3024 RMK AO2 SLP268 P0011 60020 T01560150 10161 20156 53006
KGAI 232256Z AUTO 00000KT 5SM RA BR BKN006 OVC010 16/15 A3023 RMK AO2 CIG 004V009 SLP266 P0002 T01560150
KGAI 232214Z AUTO VRB03KT 4SM -RA BR BKN006 OVC014 16/15 A3022 RMK AO2 CIG 003V008 P0001
KGAI 232156Z AUTO VRB03KT 2 1/2SM -RA BR BKN006 BKN012 OVC020 16/15 A3022 RMK AO2 RAB02 CIG 003V009 SLP262 P0002 T01560150
KGAI 232140Z AUTO VRB04KT 1 3/4SM -RA BR BKN008 OVC012 16/16 A3022 RMK AO2 RAB02 CIG 005V011 P0001
KGAI 232056Z AUTO 00000KT 10SM BKN008 OVC013 16/16 A3021 RMK AO2 RAE56 CIG 004V011 SLP259 P0002 60005 T01610156 55006
KGAI 231956Z AUTO 00000KT 10SM -RA BKN006 OVC012 16/16 A3021 RMK AO2 CIG 004V010 SLP258 P0002 T01610156
KGAI 231856Z AUTO 00000KT 10SM -RA BKN008 OVC012 16/16 A3021 RMK AO2 RAB15 CIG 004V010 SLP260 P0001 T01610156
KGAI 231756Z AUTO 00000KT 10SM OVC008 16/16 A3023 RMK AO2 RAE43 SLP265 P0001 60051 T01610156 10161 20139 55003
KGAI 231656Z AUTO 00000KT 10SM -RA BKN006 OVC012 16/15 A3023 RMK AO2 CIG 005V010 SLP265 P0005 T01560150
KGAI 231556Z AUTO VRB04KT 10SM -RA BKN006 OVC011 16/15 A3023 RMK AO2 CIG 004V009 SLP265 P0006 T01560150
KGAI 231521Z AUTO 00000KT 7SM RA BKN006 BKN011 OVC017 15/14 A3024 RMK AO2 CIG 004V009 P0003
KGAI 231456Z AUTO 05003KT 9SM -RA SCT005 BKN028 OVC034 15/14 A3024 RMK AO2 SLP269 P0015 60039 T01500144 51005
KGAI 231420Z AUTO VRB04KT 6SM RA BR SCT005 BKN027 OVC036 14/14 A3023 RMK AO2 P0009
KGAI 231413Z AUTO 00000KT 4SM RA BR BKN005 BKN030 OVC047 14/14 A3023 RMK AO2 CIG 003V010 P0007
KGAI 231408Z AUTO 05003KT 4SM RA BR SCT005 BKN032 OVC050 14/14 A3023 RMK AO2 P0006
KGAI 231356Z AUTO VRB03KT 4SM RA BR FEW013 BKN042 OVC050 14/14 A3023 RMK AO2 SLP266 P0011 T01440139
KGAI 231334Z AUTO 00000KT 5SM -RA BR FEW008 BKN035 OVC042 14/14 A3023 RMK AO2 P0005
KGAI 231256Z AUTO 00000KT 5SM RA BR BKN022 BKN029 OVC040 14/14 A3022 RMK AO2 SLP263 P0013 T01390139
KGAI 231156Z AUTO VRB03KT 8SM RA SCT042 BKN050 OVC075 14/13 A3020 RMK AO2 SLP255 P0006 60008 70008 T01390133 10150 20139 55001
KGAI 231056Z AUTO VRB03KT 10SM -RA SCT048 BKN055 OVC090 14/13 A3019 RMK AO2 RAB09 SLP251 P0002 T01390133
KGAI 230956Z AUTO 00000KT 10SM SCT049 OVC095 14/13 A3020 RMK AO2 RAB12E42 SLP255 P0000 T01440128
KGAI 230856Z AUTO 00000KT 10SM OVC049 14/13 A3020 RMK AO2 RAE14 SLP254 P0000 60000 T01440133 55002
KGAI 230756Z AUTO 00000KT 10SM -RA SCT120 14/13 A3020 RMK AO2 RAB01 SLP253 P0000 T01440133
KGAI 230656Z AUTO 00000KT 10SM OVC050 14/13 A3021 RMK AO2 SLP255 T01440128
KGAI 230556Z AUTO 00000KT 10SM FEW060 14/13 A3021 RMK AO2 SLP255 T01390128 10156 20139 58003
KGAI 230456Z AUTO 00000KT 10SM CLR 14/13 A3022 RMK AO2 SLP259 T01440128 402330139
KGAI 230356Z AUTO 00000KT 10SM CLR 14/12 A3022 RMK AO2 SLP259 T01440122
KGAI 230256Z AUTO 00000KT 10SM CLR 14/13 A3022 RMK AO2 SLP260 T01390128 50004
KGAI 230156Z AUTO 00000KT 10SM CLR 14/13 A3022 RMK AO2 SLP259 T01440128
KGAI 230056Z AUTO 00000KT 10SM CLR 15/13 A3022 RMK AO2 SLP258 T01500128
KGAI 222356Z AUTO 00000KT 10SM CLR 16/13 A3020 RMK AO2 SLP254 T01560128 10233 20156 51014
KGAI 222256Z AUTO VRB03KT 10SM FEW110 17/13 A3019 RMK AO2 SLP250 T01720128
KGAI 222156Z AUTO VRB03KT 10SM BKN100 18/14 A3019 RMK AO2 SLP247 T01830139
KGAI 222056Z AUTO VRB04KT 7SM OVC095 19/15 A3016 RMK AO2 SLP237 T01940150 58004
KGAI 221956Z AUTO 00000KT 10SM FEW095 21/15 A3017 RMK AO2 SLP240 T02110150
KGAI 221856Z AUTO VRB04KT 10SM SCT110 22/15 A3017 RMK AO2 SLP238 T02170150
KGAI 221756Z AUTO VRB03KT 10SM FEW032 BKN110 23/16 A3018 RMK AO2 SLP240 60000 T02280161 10233 20206 51006